sensor_id;sensor_type;location;lat;lon;timestamp;pressure;altitude;pressure_sealevel;temperature;humidity
71889;BME280;59762;49.998;14.858;2023-07-31T00:00:14;97295.84;;;14.72;87.06
71889;BME280;59762;49.998;14.858;2023-07-31T00:02:59;97286.38;;;14.76;85.82
71889;BME280;59762;49.998;14.858;2023-07-31T00:05:25;97291.84;;;14.83;84.32
71889;BME280;59762;49.998;14.858;2023-07-31T00:07:51;97278.22;;;14.84;84.27
71889;BME280;59762;49.998;14.858;2023-07-31T00:10:17;97285.84;;;14.81;85.17
71889;BME280;59762;49.998;14.858;2023-07-31T00:12:44;97283.97;;;14.81;84.04
71889;BME280;59762;49.998;14.858;2023-07-31T00:15:10;97280.63;;;14.79;83.77
71889;BME280;59762;49.998;14.858;2023-07-31T00:17:37;97283.06;;;14.74;84.39
71889;BME280;59762;49.998;14.858;2023-07-31T00:20:02;97285.75;;;14.74;85.05
71889;BME280;59762;49.998;14.858;2023-07-31T00:22:28;97283.25;;;14.73;83.47
71889;BME280;59762;49.998;14.858;2023-07-31T00:24:54;97289.34;;;14.81;82.58
71889;BME280;59762;49.998;14.858;2023-07-31T00:27:20;97282.84;;;14.76;82.93
71889;BME280;59762;49.998;14.858;2023-07-31T00:29:45;97276.28;;;14.78;83.16
71889;BME280;59762;49.998;14.858;2023-07-31T00:32:11;97281.00;;;14.76;82.69
71889;BME280;59762;49.998;14.858;2023-07-31T00:34:37;97273.38;;;14.80;82.58
71889;BME280;59762;49.998;14.858;2023-07-31T00:37:03;97280.06;;;14.69;83.80
71889;BME280;59762;49.998;14.858;2023-07-31T00:39:29;97276.94;;;14.66;83.64
71889;BME280;59762;49.998;14.858;2023-07-31T00:41:55;97274.59;;;14.63;84.17
71889;BME280;59762;49.998;14.858;2023-07-31T00:44:21;97272.31;;;14.60;83.63
71889;BME280;59762;49.998;14.858;2023-07-31T00:46:48;97269.38;;;14.55;85.10
71889;BME280;59762;49.998;14.858;2023-07-31T00:49:13;97276.13;;;14.51;84.47
71889;BME280;59762;49.998;14.858;2023-07-31T00:51:40;97273.88;;;14.54;83.54
71889;BME280;59762;49.998;14.858;2023-07-31T00:54:06;97275.53;;;14.55;83.88
71889;BME280;59762;49.998;14.858;2023-07-31T00:56:32;97272.50;;;14.58;84.11
71889;BME280;59762;49.998;14.858;2023-07-31T00:58:58;97259.44;;;14.55;84.78
71889;BME280;59762;49.998;14.858;2023-07-31T01:01:24;97268.06;;;14.51;83.99
71889;BME280;59762;49.998;14.858;2023-07-31T01:03:51;97274.72;;;14.55;85.09
71889;BME280;59762;49.998;14.858;2023-07-31T01:06:44;97280.28;;;14.53;83.06
71889;BME280;59762;49.998;14.858;2023-07-31T01:11:53;97272.31;;;14.45;82.98
71889;BME280;59762;49.998;14.858;2023-07-31T01:14:21;97284.19;;;14.51;83.47
71889;BME280;59762;49.998;14.858;2023-07-31T01:16:47;97272.41;;;14.52;82.08
71889;BME280;59762;49.998;14.858;2023-07-31T01:19:14;97278.16;;;14.49;82.53
71889;BME280;59762;49.998;14.858;2023-07-31T01:24:29;97268.06;;;14.51;82.53
71889;BME280;59762;49.998;14.858;2023-07-31T01:26:58;97257.03;;;14.46;82.20
71889;BME280;59762;49.998;14.858;2023-07-31T01:29:40;97258.53;;;14.48;82.44
71889;BME280;59762;49.998;14.858;2023-07-31T01:32:09;97255.84;;;14.48;81.54
71889;BME280;59762;49.998;14.858;2023-07-31T01:34:36;97255.25;;;14.38;81.59
71889;BME280;59762;49.998;14.858;2023-07-31T01:37:02;97248.50;;;14.42;81.67
71889;BME280;59762;49.998;14.858;2023-07-31T01:39:28;97253.88;;;14.42;82.31
71889;BME280;59762;49.998;14.858;2023-07-31T01:41:54;97253.25;;;14.40;83.18
71889;BME280;59762;49.998;14.858;2023-07-31T01:44:20;97247.69;;;14.42;81.41
71889;BME280;59762;49.998;14.858;2023-07-31T01:46:45;97248.31;;;14.44;80.64
71889;BME280;59762;49.998;14.858;2023-07-31T01:49:11;97249.06;;;14.52;79.58
71889;BME280;59762;49.998;14.858;2023-07-31T01:51:37;97248.31;;;14.58;80.18
71889;BME280;59762;49.998;14.858;2023-07-31T01:54:02;97238.97;;;14.54;79.30
71889;BME280;59762;49.998;14.858;2023-07-31T01:56:29;97248.31;;;14.58;nan
71889;BME280;59762;49.998;14.858;2023-07-31T01:58:54;97249.78;;;14.61;80.13
71889;BME280;59762;49.998;14.858;2023-07-31T02:01:20;97248.50;;;14.57;79.83
71889;BME280;59762;49.998;14.858;2023-07-31T02:03:45;97244.16;;;14.56;79.79
71889;BME280;59762;49.998;14.858;2023-07-31T02:06:11;97249.44;;;14.49;81.02
71889;BME280;59762;49.998;14.858;2023-07-31T02:08:37;97242.94;;;14.44;81.47
71889;BME280;59762;49.998;14.858;2023-07-31T02:11:03;97237.56;;;14.44;81.68
71889;BME280;59762;49.998;14.858;2023-07-31T02:13:28;97235.66;;;14.38;81.77
71889;BME280;59762;49.998;14.858;2023-07-31T02:15:54;97241.09;;;14.30;82.61
71889;BME280;59762;49.998;14.858;2023-07-31T02:18:20;97235.91;;;14.28;81.84
71889;BME280;59762;49.998;14.858;2023-07-31T02:20:52;97232.59;;;14.26;82.82
71889;BME280;59762;49.998;14.858;2023-07-31T02:23:20;97230.09;;;14.25;83.19
71889;BME280;59762;49.998;14.858;2023-07-31T02:25:46;97231.63;;;14.19;83.31
71889;BME280;59762;49.998;14.858;2023-07-31T02:28:12;97240.00;;;14.24;82.57
71889;BME280;59762;49.998;14.858;2023-07-31T02:30:38;97239.81;;;14.26;82.87
71889;BME280;59762;49.998;14.858;2023-07-31T02:33:05;97233.06;;;14.30;81.54
71889;BME280;59762;49.998;14.858;2023-07-31T02:35:31;97242.41;;;14.34;81.54
71889;BME280;59762;49.998;14.858;2023-07-31T02:37:56;97247.13;;;14.32;83.01
71889;BME280;59762;49.998;14.858;2023-07-31T02:40:22;97236.47;;;14.24;82.79
71889;BME280;59762;49.998;14.858;2023-07-31T02:42:48;97235.47;;;14.25;82.84
71889;BME280;59762;49.998;14.858;2023-07-31T02:45:14;97234.16;;;14.21;83.39
71889;BME280;59762;49.998;14.858;2023-07-31T02:47:39;97247.59;;;14.21;83.66
71889;BME280;59762;49.998;14.858;2023-07-31T02:50:06;97240.34;;;14.21;83.59
71889;BME280;59762;49.998;14.858;2023-07-31T02:52:31;97237.19;;;14.18;83.41
71889;BME280;59762;49.998;14.858;2023-07-31T02:54:58;97231.53;;;14.13;84.03
71889;BME280;59762;49.998;14.858;2023-07-31T02:57:23;97229.69;;;13.99;85.99
71889;BME280;59762;49.998;14.858;2023-07-31T02:59:49;97231.50;;;13.84;87.74
71889;BME280;59762;49.998;14.858;2023-07-31T03:02:14;97236.41;;;13.80;88.57
71889;BME280;59762;49.998;14.858;2023-07-31T03:04:40;97232.41;;;13.76;88.94
71889;BME280;59762;49.998;14.858;2023-07-31T03:07:06;97228.44;;;13.72;88.75
71889;BME280;59762;49.998;14.858;2023-07-31T03:09:31;97231.09;;;13.72;88.79
71889;BME280;59762;49.998;14.858;2023-07-31T03:11:57;97231.66;;;13.68;89.31
71889;BME280;59762;49.998;14.858;2023-07-31T03:14:23;97233.84;;;13.64;90.19
71889;BME280;59762;49.998;14.858;2023-07-31T03:16:48;97234.25;;;13.61;90.65
71889;BME280;59762;49.998;14.858;2023-07-31T03:19:14;97227.38;;;13.59;90.85
71889;BME280;59762;49.998;14.858;2023-07-31T03:21:40;97221.06;;;13.52;91.73
71889;BME280;59762;49.998;14.858;2023-07-31T03:24:06;97217.72;;;13.50;91.50
71889;BME280;59762;49.998;14.858;2023-07-31T03:26:32;97214.22;;;13.49;91.72
71889;BME280;59762;49.998;14.858;2023-07-31T03:28:58;97222.28;;;13.49;91.36
71889;BME280;59762;49.998;14.858;2023-07-31T03:31:24;97218.56;;;13.50;91.56
71889;BME280;59762;49.998;14.858;2023-07-31T03:33:49;97219.41;;;13.51;91.24
71889;BME280;59762;49.998;14.858;2023-07-31T03:36:15;97221.25;;;13.50;91.09
71889;BME280;59762;49.998;14.858;2023-07-31T03:38:41;97228.66;;;13.48;91.87
71889;BME280;59762;49.998;14.858;2023-07-31T03:41:06;97225.66;;;13.43;91.96
71889;BME280;59762;49.998;14.858;2023-07-31T03:43:32;97225.47;;;13.45;91.50
71889;BME280;59762;49.998;14.858;2023-07-31T03:46:00;97223.19;;;13.42;91.94
71889;BME280;59762;49.998;14.858;2023-07-31T03:48:26;97218.53;;;13.36;92.28
71889;BME280;59762;49.998;14.858;2023-07-31T03:50:51;97228.06;;;13.38;91.59
71889;BME280;59762;49.998;14.858;2023-07-31T03:53:17;97223.06;;;13.35;92.06
71889;BME280;59762;49.998;14.858;2023-07-31T03:55:43;97229.06;;;13.37;92.03
71889;BME280;59762;49.998;14.858;2023-07-31T03:58:08;97229.53;;;13.41;91.22
71889;BME280;59762;49.998;14.858;2023-07-31T04:00:34;97231.34;;;13.48;91.21
71889;BME280;59762;49.998;14.858;2023-07-31T04:03:00;97233.19;;;13.48;90.90
71889;BME280;59762;49.998;14.858;2023-07-31T04:05:25;97234.38;;;13.45;90.91
71889;BME280;59762;49.998;14.858;2023-07-31T04:07:51;97233.34;;;13.46;91.15
71889;BME280;59762;49.998;14.858;2023-07-31T04:10:17;97234.38;;;13.45;91.10
71889;BME280;59762;49.998;14.858;2023-07-31T04:12:42;97233.25;;;13.40;91.05
71889;BME280;59762;49.998;14.858;2023-07-31T04:15:08;97238.91;;;13.45;90.04
71889;BME280;59762;49.998;14.858;2023-07-31T04:17:34;97225.66;;;13.43;90.11
71889;BME280;59762;49.998;14.858;2023-07-31T04:20:00;97230.84;;;13.45;90.51
71889;BME280;59762;49.998;14.858;2023-07-31T04:22:25;97228.34;;;13.43;90.48
71889;BME280;59762;49.998;14.858;2023-07-31T04:24:51;97223.34;;;13.40;90.81
71889;BME280;59762;49.998;14.858;2023-07-31T04:27:17;97225.03;;;13.41;91.72
71889;BME280;59762;49.998;14.858;2023-07-31T04:29:42;97232.03;;;13.42;91.28
71889;BME280;59762;49.998;14.858;2023-07-31T04:32:09;97226.63;;;13.50;91.09
71889;BME280;59762;49.998;14.858;2023-07-31T04:34:35;97233.53;;;13.45;90.36
71889;BME280;59762;49.998;14.858;2023-07-31T04:37:01;97230.59;;;13.54;90.69
71889;BME280;59762;49.998;14.858;2023-07-31T04:39:26;97226.47;;;13.66;89.57
71889;BME280;59762;49.998;14.858;2023-07-31T04:41:52;97230.66;;;13.69;88.98
71889;BME280;59762;49.998;14.858;2023-07-31T04:44:17;97234.28;;;13.90;86.87
71889;BME280;59762;49.998;14.858;2023-07-31T04:46:43;97224.50;;;14.12;86.43
71889;BME280;59762;49.998;14.858;2023-07-31T04:49:09;97227.28;;;14.62;85.20
71889;BME280;59762;49.998;14.858;2023-07-31T04:51:34;97226.72;;;14.66;84.21
71889;BME280;59762;49.998;14.858;2023-07-31T04:54:00;97225.97;;;15.50;80.88
71889;BME280;59762;49.998;14.858;2023-07-31T04:56:26;97219.69;;;15.85;79.39
71889;BME280;59762;49.998;14.858;2023-07-31T04:58:51;97211.13;;;16.09;77.04
71889;BME280;59762;49.998;14.858;2023-07-31T05:01:17;97221.66;;;16.04;77.51
71889;BME280;59762;49.998;14.858;2023-07-31T05:03:42;97214.94;;;16.49;75.99
71889;BME280;59762;49.998;14.858;2023-07-31T05:06:08;97224.28;;;15.91;77.31
71889;BME280;59762;49.998;14.858;2023-07-31T05:08:34;97215.59;;;15.68;79.12
71889;BME280;59762;49.998;14.858;2023-07-31T05:10:59;97213.69;;;15.20;79.68
71889;BME280;59762;49.998;14.858;2023-07-31T05:13:25;97214.00;;;15.11;80.94
71889;BME280;59762;49.998;14.858;2023-07-31T05:15:51;97216.16;;;15.22;79.96
71889;BME280;59762;49.998;14.858;2023-07-31T05:18:16;97219.13;;;15.27;79.17
71889;BME280;59762;49.998;14.858;2023-07-31T05:20:42;97215.88;;;15.52;80.28
71889;BME280;59762;49.998;14.858;2023-07-31T05:23:07;97221.03;;;15.75;77.54
71889;BME280;59762;49.998;14.858;2023-07-31T05:25:33;97229.09;;;17.17;73.29
71889;BME280;59762;49.998;14.858;2023-07-31T05:27:59;97220.03;;;17.51;71.51
71889;BME280;59762;49.998;14.858;2023-07-31T05:30:24;97225.38;;;17.31;71.84
71889;BME280;59762;49.998;14.858;2023-07-31T05:32:50;97219.34;;;17.23;72.76
71889;BME280;59762;49.998;14.858;2023-07-31T05:35:16;97220.72;;;16.93;74.71
71889;BME280;59762;49.998;14.858;2023-07-31T05:37:41;97225.44;;;17.51;71.40
71889;BME280;59762;49.998;14.858;2023-07-31T05:40:07;97221.28;;;17.48;72.33
71889;BME280;59762;49.998;14.858;2023-07-31T05:42:33;97230.25;;;16.48;74.37
71889;BME280;59762;49.998;14.858;2023-07-31T05:45:00;97231.03;;;16.08;76.52
71889;BME280;59762;49.998;14.858;2023-07-31T05:47:25;97237.72;;;15.91;77.75
71889;BME280;59762;49.998;14.858;2023-07-31T05:49:51;97234.44;;;15.68;79.83
71889;BME280;59762;49.998;14.858;2023-07-31T05:52:18;97232.53;;;15.90;78.69
71889;BME280;59762;49.998;14.858;2023-07-31T05:54:44;97225.72;;;16.21;77.45
71889;BME280;59762;49.998;14.858;2023-07-31T05:57:11;97230.34;;;16.34;76.30
71889;BME280;59762;49.998;14.858;2023-07-31T05:59:37;97230.84;;;16.84;74.94
71889;BME280;59762;49.998;14.858;2023-07-31T06:02:02;97213.09;;;17.16;72.80
71889;BME280;59762;49.998;14.858;2023-07-31T06:04:28;97210.69;;;16.80;73.70
71889;BME280;59762;49.998;14.858;2023-07-31T06:06:54;97215.00;;;17.22;74.49
71889;BME280;59762;49.998;14.858;2023-07-31T06:09:19;97215.69;;;17.56;72.77
71889;BME280;59762;49.998;14.858;2023-07-31T06:11:48;97208.00;;;17.73;73.83
71889;BME280;59762;49.998;14.858;2023-07-31T06:14:14;97212.50;;;17.20;75.06
71889;BME280;59762;49.998;14.858;2023-07-31T06:16:40;97220.47;;;16.81;76.18
71889;BME280;59762;49.998;14.858;2023-07-31T06:19:06;97210.09;;;16.78;75.79
71889;BME280;59762;49.998;14.858;2023-07-31T06:21:33;97215.69;;;16.83;76.31
71889;BME280;59762;49.998;14.858;2023-07-31T06:23:58;97205.19;;;17.01;76.23
71889;BME280;59762;49.998;14.858;2023-07-31T06:26:24;97208.75;;;17.21;74.03
71889;BME280;59762;49.998;14.858;2023-07-31T06:28:50;97211.75;;;17.59;75.07
71889;BME280;59762;49.998;14.858;2023-07-31T06:31:15;97203.25;;;17.75;72.82
71889;BME280;59762;49.998;14.858;2023-07-31T06:33:44;97195.13;;;18.01;70.80
71889;BME280;59762;49.998;14.858;2023-07-31T06:36:09;97190.13;;;18.17;71.50
71889;BME280;59762;49.998;14.858;2023-07-31T06:38:35;97189.72;;;18.14;72.27
71889;BME280;59762;49.998;14.858;2023-07-31T06:41:02;97185.34;;;18.06;71.50
71889;BME280;59762;49.998;14.858;2023-07-31T06:43:28;97191.41;;;17.82;73.52
71889;BME280;59762;49.998;14.858;2023-07-31T06:45:53;97204.91;;;17.69;73.08
71889;BME280;59762;49.998;14.858;2023-07-31T06:48:19;97200.97;;;17.85;74.05
71889;BME280;59762;49.998;14.858;2023-07-31T06:50:45;97206.56;;;17.83;74.91
71889;BME280;59762;49.998;14.858;2023-07-31T06:53:11;97200.53;;;18.01;74.02
71889;BME280;59762;49.998;14.858;2023-07-31T06:55:36;97189.91;;;18.19;72.76
71889;BME280;59762;49.998;14.858;2023-07-31T06:58:02;97182.84;;;18.18;72.60
71889;BME280;59762;49.998;14.858;2023-07-31T07:00:28;97194.28;;;18.00;73.10
71889;BME280;59762;49.998;14.858;2023-07-31T07:02:54;97198.25;;;17.91;73.96
71889;BME280;59762;49.998;14.858;2023-07-31T07:05:19;97198.03;;;18.06;72.06
71889;BME280;59762;49.998;14.858;2023-07-31T07:07:45;97201.78;;;18.11;73.20
71889;BME280;59762;49.998;14.858;2023-07-31T07:10:11;97200.94;;;18.04;72.59
71889;BME280;59762;49.998;14.858;2023-07-31T07:12:37;97191.16;;;18.16;73.34
71889;BME280;59762;49.998;14.858;2023-07-31T07:15:02;97187.63;;;18.09;74.25
71889;BME280;59762;49.998;14.858;2023-07-31T07:17:30;97187.41;;;18.24;71.60
71889;BME280;59762;49.998;14.858;2023-07-31T07:19:59;97175.72;;;18.43;71.44
71889;BME280;59762;49.998;14.858;2023-07-31T07:22:26;97180.13;;;18.37;71.80
71889;BME280;59762;49.998;14.858;2023-07-31T07:24:53;97182.38;;;18.47;72.53
71889;BME280;59762;49.998;14.858;2023-07-31T07:27:18;97182.19;;;18.42;71.48
71889;BME280;59762;49.998;14.858;2023-07-31T07:29:45;97183.63;;;18.38;72.53
71889;BME280;59762;49.998;14.858;2023-07-31T07:32:12;97182.13;;;18.55;72.10
71889;BME280;59762;49.998;14.858;2023-07-31T07:34:37;97181.03;;;18.69;72.26
71889;BME280;59762;49.998;14.858;2023-07-31T07:37:03;97177.00;;;18.84;70.58
71889;BME280;59762;49.998;14.858;2023-07-31T07:39:29;97178.44;;;18.93;70.83
71889;BME280;59762;49.998;14.858;2023-07-31T07:41:55;97174.41;;;19.09;70.53
71889;BME280;59762;49.998;14.858;2023-07-31T07:44:20;97177.34;;;19.69;69.07
71889;BME280;59762;49.998;14.858;2023-07-31T07:46:46;97176.16;;;19.83;69.17
71889;BME280;59762;49.998;14.858;2023-07-31T07:49:11;97178.69;;;19.29;70.17
71889;BME280;59762;49.998;14.858;2023-07-31T07:51:38;97177.00;;;18.84;71.68
71889;BME280;59762;49.998;14.858;2023-07-31T07:54:03;97168.38;;;18.63;72.18
71889;BME280;59762;49.998;14.858;2023-07-31T07:56:29;97169.31;;;18.37;72.04
71889;BME280;59762;49.998;14.858;2023-07-31T07:58:55;97172.44;;;18.21;73.59
71889;BME280;59762;49.998;14.858;2023-07-31T08:01:20;97173.88;;;18.24;74.20
71889;BME280;59762;49.998;14.858;2023-07-31T08:03:47;97166.38;;;18.39;74.38
71889;BME280;59762;49.998;14.858;2023-07-31T08:06:14;97170.50;;;18.54;74.07
71889;BME280;59762;49.998;14.858;2023-07-31T08:08:39;97165.69;;;18.63;73.10
71889;BME280;59762;49.998;14.858;2023-07-31T08:11:06;97169.41;;;18.68;73.61
71889;BME280;59762;49.998;14.858;2023-07-31T08:13:31;97176.91;;;18.60;71.97
71889;BME280;59762;49.998;14.858;2023-07-31T08:15:57;97177.53;;;18.62;72.75
71889;BME280;59762;49.998;14.858;2023-07-31T08:18:23;97176.34;;;18.51;73.26
71889;BME280;59762;49.998;14.858;2023-07-31T08:20:48;97187.59;;;18.35;74.72
71889;BME280;59762;49.998;14.858;2023-07-31T08:23:14;97185.69;;;18.49;75.33
71889;BME280;59762;49.998;14.858;2023-07-31T08:25:40;97188.84;;;18.39;71.44
71889;BME280;59762;49.998;14.858;2023-07-31T08:28:06;97192.75;;;18.56;72.49
71889;BME280;59762;49.998;14.858;2023-07-31T08:30:32;97197.66;;;18.79;71.53
71889;BME280;59762;49.998;14.858;2023-07-31T08:33:01;97196.69;;;19.04;72.17
71889;BME280;59762;49.998;14.858;2023-07-31T08:35:28;97193.09;;;19.10;71.85
71889;BME280;59762;49.998;14.858;2023-07-31T08:37:54;97196.19;;;19.20;71.27
71889;BME280;59762;49.998;14.858;2023-07-31T08:40:20;97195.34;;;19.20;70.83
71889;BME280;59762;49.998;14.858;2023-07-31T08:42:48;97196.56;;;19.30;69.57
71889;BME280;59762;49.998;14.858;2023-07-31T08:45:16;97189.16;;;19.13;69.34
71889;BME280;59762;49.998;14.858;2023-07-31T08:47:47;97182.88;;;19.19;70.78
71889;BME280;59762;49.998;14.858;2023-07-31T08:50:14;97187.81;;;19.35;70.81
71889;BME280;59762;49.998;14.858;2023-07-31T08:52:40;97186.94;;;19.41;69.46
71889;BME280;59762;49.998;14.858;2023-07-31T08:55:07;97193.38;;;19.71;69.59
71889;BME280;59762;49.998;14.858;2023-07-31T08:57:35;97191.75;;;19.39;68.45
71889;BME280;59762;49.998;14.858;2023-07-31T09:00:02;97198.47;;;19.23;69.49
71889;BME280;59762;49.998;14.858;2023-07-31T09:02:46;97195.56;;;19.18;70.73
71889;BME280;59762;49.998;14.858;2023-07-31T09:05:14;97193.06;;;19.23;68.82
71889;BME280;59762;49.998;14.858;2023-07-31T09:07:40;97200.63;;;19.08;70.91
71889;BME280;59762;49.998;14.858;2023-07-31T09:10:11;97192.16;;;18.98;70.06
71889;BME280;59762;49.998;14.858;2023-07-31T09:12:38;97189.53;;;19.23;71.87
71889;BME280;59762;49.998;14.858;2023-07-31T09:15:05;97182.66;;;19.27;69.59
71889;BME280;59762;49.998;14.858;2023-07-31T09:17:31;97184.00;;;19.42;70.87
71889;BME280;59762;49.998;14.858;2023-07-31T09:19:57;97192.75;;;19.69;68.70
71889;BME280;59762;49.998;14.858;2023-07-31T09:22:33;97193.84;;;20.17;67.33
71889;BME280;59762;49.998;14.858;2023-07-31T09:27:52;97189.78;;;19.77;69.04
71889;BME280;59762;49.998;14.858;2023-07-31T09:30:19;97184.63;;;19.69;70.32
71889;BME280;59762;49.998;14.858;2023-07-31T09:32:46;97185.09;;;20.15;69.56
71889;BME280;59762;49.998;14.858;2023-07-31T09:35:19;97182.59;;;19.89;66.74
71889;BME280;59762;49.998;14.858;2023-07-31T09:37:53;97184.88;;;20.16;71.98
71889;BME280;59762;49.998;14.858;2023-07-31T09:42:51;97188.72;;;20.27;70.84
71889;BME280;59762;49.998;14.858;2023-07-31T09:45:18;97188.69;;;20.09;68.46
71889;BME280;59762;49.998;14.858;2023-07-31T09:47:47;97188.22;;;20.12;69.07
71889;BME280;59762;49.998;14.858;2023-07-31T09:50:16;97185.88;;;20.22;67.90
71889;BME280;59762;49.998;14.858;2023-07-31T09:52:42;97182.31;;;20.21;66.42
71889;BME280;59762;49.998;14.858;2023-07-31T09:55:10;97180.56;;;20.09;66.77
71889;BME280;59762;49.998;14.858;2023-07-31T09:57:40;97181.94;;;20.18;67.47
71889;BME280;59762;49.998;14.858;2023-07-31T10:00:07;97179.47;;;20.34;66.73
71889;BME280;59762;49.998;14.858;2023-07-31T10:02:36;97174.03;;;20.34;66.51
71889;BME280;59762;49.998;14.858;2023-07-31T10:05:03;97166.31;;;20.13;65.22
71889;BME280;59762;49.998;14.858;2023-07-31T10:07:30;97156.13;;;20.33;66.79
71889;BME280;59762;49.998;14.858;2023-07-31T10:10:00;97153.47;;;20.45;65.78
71889;BME280;59762;49.998;14.858;2023-07-31T10:12:27;97157.00;;;20.27;66.04
71889;BME280;59762;49.998;14.858;2023-07-31T10:14:56;97145.63;;;20.37;63.43
71889;BME280;59762;49.998;14.858;2023-07-31T10:17:26;97145.78;;;20.60;65.71
71889;BME280;59762;49.998;14.858;2023-07-31T10:19:53;97141.50;;;20.52;66.66
71889;BME280;59762;49.998;14.858;2023-07-31T10:22:21;97135.84;;;20.36;64.26
71889;BME280;59762;49.998;14.858;2023-07-31T10:24:48;97129.56;;;20.53;64.27
71889;BME280;59762;49.998;14.858;2023-07-31T10:27:14;97129.00;;;20.51;63.48
71889;BME280;59762;49.998;14.858;2023-07-31T10:29:41;97117.28;;;20.87;64.52
71889;BME280;59762;49.998;14.858;2023-07-31T10:32:07;97117.50;;;21.15;66.76
71889;BME280;59762;49.998;14.858;2023-07-31T10:34:36;97112.34;;;21.78;65.53
71889;BME280;59762;49.998;14.858;2023-07-31T10:40:03;97103.28;;;21.31;61.57
71889;BME280;59762;49.998;14.858;2023-07-31T10:42:34;97104.47;;;21.35;61.14
71889;BME280;59762;49.998;14.858;2023-07-31T10:45:06;97097.41;;;21.57;62.67
71889;BME280;59762;49.998;14.858;2023-07-31T10:47:37;97104.50;;;21.58;60.68
71889;BME280;59762;49.998;14.858;2023-07-31T10:50:12;97094.84;;;21.74;60.78
71889;BME280;59762;49.998;14.858;2023-07-31T10:52:38;97089.84;;;21.48;63.00
71889;BME280;59762;49.998;14.858;2023-07-31T10:55:33;97100.19;;;21.27;61.51
71889;BME280;59762;49.998;14.858;2023-07-31T10:58:12;97091.91;;;21.75;63.94
71889;BME280;59762;49.998;14.858;2023-07-31T11:00:42;97076.91;;;21.73;63.57
71889;BME280;59762;49.998;14.858;2023-07-31T11:11:17;97063.28;;;21.61;60.50
71889;BME280;59762;49.998;14.858;2023-07-31T11:13:46;97057.50;;;21.92;61.44
71889;BME280;59762;49.998;14.858;2023-07-31T11:16:15;97060.38;;;21.74;62.60
71889;BME280;59762;49.998;14.858;2023-07-31T11:18:42;97062.13;;;21.92;62.39
71889;BME280;59762;49.998;14.858;2023-07-31T11:21:12;97058.78;;;22.13;62.32
71889;BME280;59762;49.998;14.858;2023-07-31T11:23:38;97063.88;;;21.86;60.52
71889;BME280;59762;49.998;14.858;2023-07-31T11:26:05;97061.03;;;22.16;63.33
71889;BME280;59762;49.998;14.858;2023-07-31T11:28:34;97046.56;;;22.27;61.85
71889;BME280;59762;49.998;14.858;2023-07-31T11:31:01;97046.53;;;22.38;64.19
71889;BME280;59762;49.998;14.858;2023-07-31T11:33:27;97038.03;;;22.46;62.31
71889;BME280;59762;49.998;14.858;2023-07-31T11:35:53;97027.94;;;22.07;61.25
71889;BME280;59762;49.998;14.858;2023-07-31T11:40:53;97027.34;;;22.05;59.65
71889;BME280;59762;49.998;14.858;2023-07-31T11:43:20;97039.25;;;22.27;61.26
71889;BME280;59762;49.998;14.858;2023-07-31T11:45:51;97044.25;;;22.07;64.24
71889;BME280;59762;49.998;14.858;2023-07-31T11:48:24;97040.50;;;21.85;63.74
71889;BME280;59762;49.998;14.858;2023-07-31T11:50:51;97045.13;;;21.85;61.37
71889;BME280;59762;49.998;14.858;2023-07-31T11:53:20;97040.28;;;21.75;59.29
71889;BME280;59762;49.998;14.858;2023-07-31T11:55:48;97040.97;;;21.71;60.00
71889;BME280;59762;49.998;14.858;2023-07-31T11:58:15;97048.97;;;21.43;62.93
71889;BME280;59762;49.998;14.858;2023-07-31T12:00:41;97046.59;;;21.35;61.09
71889;BME280;59762;49.998;14.858;2023-07-31T12:03:07;97034.19;;;21.39;60.84
71889;BME280;59762;49.998;14.858;2023-07-31T12:05:33;97030.31;;;21.69;61.88
71889;BME280;59762;49.998;14.858;2023-07-31T12:07:59;97018.38;;;21.93;60.09
71889;BME280;59762;49.998;14.858;2023-07-31T12:10:30;97026.34;;;22.46;59.16
71889;BME280;59762;49.998;14.858;2023-07-31T12:13:06;97024.81;;;22.27;59.77
71889;BME280;59762;49.998;14.858;2023-07-31T12:15:40;97020.03;;;21.94;56.96
71889;BME280;59762;49.998;14.858;2023-07-31T12:18:18;97017.22;;;21.66;55.97
71889;BME280;59762;49.998;14.858;2023-07-31T12:20:47;97008.81;;;21.56;56.91
71889;BME280;59762;49.998;14.858;2023-07-31T12:23:21;97020.03;;;21.48;59.60
71889;BME280;59762;49.998;14.858;2023-07-31T12:26:09;97028.78;;;21.62;59.20
71889;BME280;59762;49.998;14.858;2023-07-31T12:28:55;97010.00;;;21.95;57.70
71889;BME280;59762;49.998;14.858;2023-07-31T12:31:22;97009.63;;;22.42;57.11
71889;BME280;59762;49.998;14.858;2023-07-31T12:33:49;97002.34;;;22.31;56.82
71889;BME280;59762;49.998;14.858;2023-07-31T12:36:18;96997.97;;;22.19;56.86
71889;BME280;59762;49.998;14.858;2023-07-31T12:38:44;97002.78;;;22.40;56.72
71889;BME280;59762;49.998;14.858;2023-07-31T12:41:10;97000.41;;;22.55;56.37
71889;BME280;59762;49.998;14.858;2023-07-31T12:43:37;96995.13;;;22.37;53.35
71889;BME280;59762;49.998;14.858;2023-07-31T12:46:05;96990.47;;;22.77;54.57
71889;BME280;59762;49.998;14.858;2023-07-31T12:48:31;96991.19;;;22.72;54.87
71889;BME280;59762;49.998;14.858;2023-07-31T12:50:57;96980.03;;;23.02;54.38
71889;BME280;59762;49.998;14.858;2023-07-31T12:53:22;96987.53;;;22.95;55.65
71889;BME280;59762;49.998;14.858;2023-07-31T12:55:49;96993.19;;;22.77;55.60
71889;BME280;59762;49.998;14.858;2023-07-31T12:58:15;96986.69;;;22.38;55.17
71889;BME280;59762;49.998;14.858;2023-07-31T13:00:41;96988.94;;;22.41;55.61
71889;BME280;59762;49.998;14.858;2023-07-31T13:03:07;96989.22;;;21.89;54.59
71889;BME280;59762;49.998;14.858;2023-07-31T13:05:33;96982.22;;;21.81;56.12
71889;BME280;59762;49.998;14.858;2023-07-31T13:07:59;96976.34;;;21.84;59.42
71889;BME280;59762;49.998;14.858;2023-07-31T13:10:25;96977.03;;;21.68;59.91
71889;BME280;59762;49.998;14.858;2023-07-31T13:12:52;96970.78;;;21.68;58.57